Ray, MN (56669)

5:55 AM CDT on August 29, 2015 (GMT -0500)
Falls International | | Change Station
CLOSE
Current Station
Airport
Location: International Falls,
Elevation: 1181 ft
Nearby Weather Stations

Elev 1181 ft 48.56 °N, 93.40 °W | Updated 1 hour ago

Overcast
Overcast
66 °F
Feels Like 66 °F
N
4
Wind Variable Wind from Variable

Today
High -- | Low -- °F
--% Chance of Precip.
Yesterday
High -- | Low -- °F
Precip. -- in
6:25 AM 8:00 PM
Full, 100% visible
Pressure 29.94 in
Visibility 10.0 miles
Clouds Overcast 1800 ft
Dew Point 63 °F
Humidity 90%
Rainfall 0.00 in
Snow Depth Not available.
UV 0 out of 12
Pollen 9.80 out of 12
Air Quality Not available.
Flu Activity Not available.
METAR KINL 290955Z AUTO VRB03KT 10SM OVC018 19/17 A2994 RMK AO2 SLP136 T01890172 TSNO
Pressure 29.94 in
Visibility 10.0 miles
Clouds Overcast 1800 ft
Dew Point 63 °F
Humidity 90%
Rainfall 0.00 in
Snow Depth Not available.
UV 0 out of 12
Pollen 9.80 out of 12
Air Quality Not available.
Flu Activity Not available.
METAR KINL 290955Z AUTO VRB03KT 10SM OVC018 19/17 A2994 RMK AO2 SLP136 T01890172 TSNO

10-Day Weather Forecast

×

Almanac

Astronomy

Aug. 29, 2015 Rise Set
Actual Time
Civil Twilight
Nautical Twilight
Astronomical Twilight
Moon
Length of Visible Light
Length of Day
Tomorrow will be .
, % of the Moon is Illuminated

Today's Extremes

State Highs State Lows

Community

WunderPhotos

Upload Photos

1,850,633 photos uploaded!

WunderBlogs® & News

Nearby

Air Quality

  Air Quality AQ Index Pollutant
Not available.

Snow Depth

Station Depth Elevation

Earthquake Activity

City Distance Mag. Time & Date
Minimum magnitude displayed is 2.5.

Coastal Water Temperatures

Place Temperature

Stations

Nearby Weather Stations

Station Location Temp. Windchill Dew Point Humidity Wind Precip. Elev Updated Type